createdAt,value
2019-03-08T00:00:09.940Z,93763.06
2019-03-08T00:02:38.595Z,93766.28
2019-03-08T00:05:07.263Z,93768.17
2019-03-08T00:07:36.055Z,93780.61
2019-03-08T00:10:05.372Z,93784.17
2019-03-08T00:12:34.079Z,93781.74
2019-03-08T00:15:02.706Z,93781.06
2019-03-08T00:17:31.376Z,93778.95
2019-03-08T00:20:00.055Z,93790.45
2019-03-08T00:22:28.955Z,93798.31
2019-03-08T00:24:57.630Z,93796.54
2019-03-08T00:27:26.302Z,93796.80
2019-03-08T00:29:54.942Z,93802.17
2019-03-08T00:32:23.564Z,93806.84
2019-03-08T00:34:52.234Z,93819.02
2019-03-08T00:37:21.025Z,93806.95
2019-03-08T00:39:49.722Z,93808.05
2019-03-08T00:42:18.332Z,93812.29
2019-03-08T00:44:46.949Z,93811.93
2019-03-08T00:47:15.635Z,93810.78
2019-03-08T00:49:44.249Z,93808.82
2019-03-08T00:52:13.077Z,93803.17
2019-03-08T00:54:41.736Z,93809.80
2019-03-08T00:57:10.427Z,93811.93
2019-03-08T00:59:39.049Z,93815.92
2019-03-08T01:02:07.749Z,93813.84
2019-03-08T01:04:36.474Z,93814.43
2019-03-08T01:07:05.144Z,93813.59
2019-03-08T01:09:33.767Z,93814.55
2019-03-08T01:12:02.466Z,93814.95
2019-03-08T01:14:31.177Z,93818.97
2019-03-08T01:16:59.854Z,93817.01
2019-03-08T01:19:28.469Z,93816.54
2019-03-08T01:21:57.226Z,93808.75
2019-03-08T01:24:25.872Z,93808.99
2019-03-08T01:26:54.569Z,93808.69
2019-03-08T01:29:23.529Z,93811.98
2019-03-08T01:31:53.485Z,93813.05
2019-03-08T01:34:22.344Z,93805.95
2019-03-08T01:36:51.067Z,93811.37
2019-03-08T01:39:19.767Z,93815.05
2019-03-08T01:41:48.360Z,93819.23
2019-03-08T01:44:17.073Z,93816.16
2019-03-08T01:46:45.715Z,93812.05
2019-03-08T01:49:14.392Z,93805.93
2019-03-08T01:51:43.012Z,93804.84
2019-03-08T01:54:11.792Z,93808.89
2019-03-08T01:56:40.416Z,93801.91
2019-03-08T01:59:09.036Z,93803.61
2019-03-08T02:01:37.727Z,93806.91
2019-03-08T02:04:06.879Z,93806.86
2019-03-08T02:06:35.556Z,93812.37
2019-03-08T02:09:05.362Z,93815.62
2019-03-08T02:11:34.035Z,93811.63
2019-03-08T02:14:02.707Z,93810.17
2019-03-08T02:16:31.387Z,93802.68
2019-03-08T02:19:00.242Z,93804.66
2019-03-08T02:21:28.897Z,93808.57
2019-03-08T02:23:57.513Z,93809.44
2019-03-08T02:26:26.192Z,93813.10
2019-03-08T02:28:54.943Z,93811.65
2019-03-08T02:31:23.618Z,93812.94
2019-03-08T02:33:52.603Z,93814.44
2019-03-08T02:36:21.214Z,93811.51
2019-03-08T02:38:49.945Z,93816.88
2019-03-08T02:41:18.621Z,93813.69
2019-03-08T02:43:47.236Z,93818.16
2019-03-08T02:46:15.845Z,93822.08
2019-03-08T02:48:44.707Z,93822.52
2019-03-08T02:51:13.343Z,93826.98
2019-03-08T02:53:42.042Z,93823.33
2019-03-08T02:56:10.649Z,93826.57
2019-03-08T02:58:39.270Z,93826.75
2019-03-08T03:01:07.922Z,93822.89
2019-03-08T03:03:36.571Z,93826.69
2019-03-08T03:06:05.195Z,93831.52
2019-03-08T03:08:33.831Z,93827.78
2019-03-08T03:11:02.509Z,93828.77
2019-03-08T03:13:31.179Z,93826.87
2019-03-08T03:15:59.858Z,93827.79
2019-03-08T03:18:28.487Z,93819.56
2019-03-08T03:20:57.178Z,93820.63
2019-03-08T03:23:25.789Z,93830.85
2019-03-08T03:25:54.488Z,93836.20
2019-03-08T03:28:23.110Z,93833.27
2019-03-08T03:30:51.732Z,93832.36
2019-03-08T03:33:21.329Z,93835.63
2019-03-08T03:35:49.990Z,93841.50
2019-03-08T03:38:18.674Z,93845.30
2019-03-08T03:40:47.401Z,93846.77
2019-03-08T03:43:16.002Z,93846.55
2019-03-08T03:45:45.008Z,93846.00
2019-03-08T03:48:13.671Z,93855.97
2019-03-08T03:50:42.396Z,93853.64
2019-03-08T03:53:11.013Z,93840.58
2019-03-08T03:55:39.709Z,93830.91
2019-03-08T03:58:08.387Z,93832.80
2019-03-08T04:00:38.787Z,93832.14
2019-03-08T04:03:07.405Z,93826.81
2019-03-08T04:05:36.085Z,93828.34
2019-03-08T04:08:04.797Z,93833.70
2019-03-08T04:10:33.470Z,93839.36
2019-03-08T04:13:02.191Z,93843.52
2019-03-08T04:15:31.075Z,93853.19
2019-03-08T04:17:59.773Z,93852.27
2019-03-08T04:20:28.381Z,93854.66
2019-03-08T04:22:57.073Z,93857.22
2019-03-08T04:25:25.697Z,93856.80
2019-03-08T04:27:54.371Z,93854.96
2019-03-08T04:30:23.179Z,93851.47
2019-03-08T04:32:51.863Z,93844.66
2019-03-08T04:35:21.518Z,93845.94
2019-03-08T04:37:50.134Z,93851.14
2019-03-08T04:40:18.747Z,93852.36
2019-03-08T04:42:47.416Z,93853.98
2019-03-08T04:45:16.565Z,93851.96
2019-03-08T04:47:45.179Z,93853.86
2019-03-08T04:50:15.931Z,93861.02
2019-03-08T04:52:44.685Z,93856.37
2019-03-08T04:55:16.858Z,93870.56
2019-03-08T04:57:46.156Z,93864.14
2019-03-08T05:00:16.407Z,93866.00
2019-03-08T05:02:45.132Z,93869.67
2019-03-08T05:05:14.212Z,93868.33
2019-03-08T05:07:42.841Z,93877.88
2019-03-08T05:10:21.759Z,93878.69
2019-03-08T05:12:50.439Z,93884.48
2019-03-08T05:15:19.114Z,93890.31
2019-03-08T05:17:47.739Z,93885.91
2019-03-08T05:20:16.421Z,93891.27
2019-03-08T05:22:45.055Z,93891.23
2019-03-08T05:25:14.829Z,93892.39
2019-03-08T05:27:43.444Z,93899.81
2019-03-08T05:30:16.848Z,93907.55
2019-03-08T05:32:45.564Z,93906.02
2019-03-08T05:35:15.130Z,93907.48
2019-03-08T05:37:44.173Z,93914.83
2019-03-08T05:40:14.568Z,93914.64
2019-03-08T05:42:43.188Z,93921.99
2019-03-08T05:45:13.170Z,93922.59
2019-03-08T05:47:41.862Z,93917.75
2019-03-08T05:50:11.593Z,93921.91
2019-03-08T05:52:40.666Z,93923.26
2019-03-08T05:55:11.652Z,93921.18
2019-03-08T05:57:40.367Z,93925.97
2019-03-08T06:00:18.343Z,93937.28
2019-03-08T06:02:46.989Z,93944.86
2019-03-08T06:05:15.673Z,93949.08
2019-03-08T06:07:44.333Z,93949.87
2019-03-08T06:10:31.143Z,93951.11
2019-03-08T06:13:01.182Z,93953.01
2019-03-08T06:15:31.328Z,93947.38
2019-03-08T06:17:59.945Z,93947.45
2019-03-08T06:20:28.817Z,93953.32
2019-03-08T06:22:57.731Z,93946.28
2019-03-08T06:25:29.214Z,93957.23
2019-03-08T06:27:57.965Z,93958.38
2019-03-08T06:30:26.643Z,93965.86
2019-03-08T06:32:55.365Z,93967.50
2019-03-08T06:35:24.029Z,93972.16
2019-03-08T06:37:52.843Z,93970.08
2019-03-08T06:40:21.551Z,93980.05
2019-03-08T06:42:50.197Z,93979.50
2019-03-08T06:45:19.236Z,93980.30
2019-03-08T06:47:48.101Z,93987.03
2019-03-08T06:50:17.009Z,93986.91
2019-03-08T06:52:48.808Z,93988.50
2019-03-08T06:55:19.691Z,93990.81
2019-03-08T06:57:52.963Z,93999.01
2019-03-08T07:00:26.590Z,94002.23
2019-03-08T07:02:59.673Z,94000.11
2019-03-08T07:05:31.332Z,94008.48
2019-03-08T07:08:01.664Z,94008.98
2019-03-08T07:10:30.545Z,94014.11
2019-03-08T07:13:03.634Z,94011.81
2019-03-08T07:15:31.723Z,94016.89
2019-03-08T07:18:00.598Z,94014.95
2019-03-08T07:20:38.394Z,94019.23
2019-03-08T07:23:11.591Z,94022.78
2019-03-08T07:25:59.668Z,94023.81
2019-03-08T07:28:29.954Z,94031.21
2019-03-08T07:31:08.899Z,94037.28
2019-03-08T07:33:39.361Z,94041.98
2019-03-08T07:36:24.742Z,94049.64
2019-03-08T07:39:02.955Z,94044.91
2019-03-08T07:41:35.018Z,94052.12
2019-03-08T07:44:05.295Z,94052.61
2019-03-08T07:46:45.889Z,94061.30
2019-03-08T07:49:22.482Z,94064.13
2019-03-08T07:51:59.214Z,94069.89
2019-03-08T07:54:29.454Z,94073.48
2019-03-08T07:57:19.355Z,94070.64
2019-03-08T08:00:05.769Z,94064.08
2019-03-08T08:02:36.163Z,94073.09
2019-03-08T08:05:14.098Z,94073.70
2019-03-08T08:07:59.619Z,94080.18
2019-03-08T08:10:32.703Z,94083.67
2019-03-08T08:13:02.998Z,94090.06
2019-03-08T08:15:52.093Z,94091.03
2019-03-08T08:18:22.826Z,94090.86
2019-03-08T08:21:01.318Z,94095.69
2019-03-08T08:23:35.014Z,94098.13
2019-03-08T08:26:09.051Z,94098.30
2019-03-08T08:28:51.263Z,94084.83
2019-03-08T08:31:37.872Z,94081.95
2019-03-08T08:34:21.941Z,94086.56
2019-03-08T08:36:56.439Z,94089.16
2019-03-08T08:39:41.618Z,94095.28
2019-03-08T08:42:14.401Z,94094.38
2019-03-08T08:44:44.680Z,94095.47
2019-03-08T08:47:17.909Z,94106.12
2019-03-08T08:49:54.441Z,94096.09
2019-03-08T08:52:36.538Z,94088.91
2019-03-08T08:55:24.663Z,94093.53
2019-03-08T08:58:01.202Z,94075.38
2019-03-08T09:00:52.479Z,94095.34
2019-03-08T09:03:25.700Z,94099.35
2019-03-08T09:06:08.012Z,94097.70
2019-03-08T09:08:54.617Z,94097.91
2019-03-08T09:11:44.525Z,94093.09
2019-03-08T09:14:17.896Z,94101.55
2019-03-08T09:17:06.178Z,94106.14
2019-03-08T09:19:52.527Z,94109.22
2019-03-08T09:22:31.763Z,94104.38
2019-03-08T09:25:04.814Z,94093.59
2019-03-08T09:27:35.093Z,94101.08
2019-03-08T09:30:07.597Z,94101.07
2019-03-08T09:32:58.706Z,94104.39
2019-03-08T09:35:37.093Z,94106.11
2019-03-08T09:38:07.673Z,94109.60
2019-03-08T09:40:47.065Z,94112.36
2019-03-08T09:43:29.140Z,94107.20
2019-03-08T09:46:05.101Z,94102.80
2019-03-08T09:48:38.278Z,94105.92
2019-03-08T09:51:24.877Z,94118.29
2019-03-08T09:53:55.128Z,94119.94
2019-03-08T09:56:25.496Z,94119.45
2019-03-08T09:58:55.748Z,94121.15
2019-03-08T10:01:28.917Z,94123.72
2019-03-08T10:04:17.547Z,94119.23
2019-03-08T10:06:59.659Z,94124.69
2019-03-08T10:09:35.896Z,94127.33
2019-03-08T10:12:18.200Z,94134.39
2019-03-08T10:14:51.390Z,94134.09
2019-03-08T10:17:36.816Z,94133.59
2019-03-08T10:20:09.685Z,94128.62
2019-03-08T10:22:46.349Z,94125.57
2019-03-08T10:25:22.717Z,94118.00
2019-03-08T10:27:52.982Z,94116.31
2019-03-08T10:30:26.263Z,94117.60
2019-03-08T10:32:59.589Z,94118.67
2019-03-08T10:35:44.885Z,94108.25
2019-03-08T10:38:22.737Z,94110.52
2019-03-08T10:40:52.683Z,94113.16
2019-03-08T10:43:26.545Z,94110.50
2019-03-08T10:46:02.977Z,94122.81
2019-03-08T10:48:39.259Z,94119.77
2019-03-08T10:51:12.646Z,94122.01
2019-03-08T10:53:42.863Z,94118.30
2019-03-08T10:56:13.189Z,94116.95
2019-03-08T10:58:49.660Z,94114.37
2019-03-08T11:01:19.981Z,94112.34
2019-03-08T11:03:59.839Z,94111.03
2019-03-08T11:06:30.155Z,94112.02
2019-03-08T11:09:00.376Z,94106.41
2019-03-08T11:11:30.701Z,94110.47
2019-03-08T11:14:10.249Z,94118.13
2019-03-08T11:16:43.537Z,94112.22
2019-03-08T11:19:27.600Z,94117.03
2019-03-08T11:22:14.083Z,94107.09
2019-03-08T11:24:47.386Z,94116.61
2019-03-08T11:27:23.341Z,94117.47
2019-03-08T11:30:10.057Z,94118.67
2019-03-08T11:32:40.372Z,94113.42
2019-03-08T11:35:21.767Z,94113.42
2019-03-08T11:37:52.090Z,94111.31
2019-03-08T11:40:22.639Z,94104.87
2019-03-08T11:42:58.691Z,94101.56
2019-03-08T11:45:41.102Z,94093.80
2019-03-08T11:48:11.304Z,94091.25
2019-03-08T11:50:59.761Z,94086.89
2019-03-08T11:53:30.079Z,94091.48
2019-03-08T11:56:16.685Z,94088.94
2019-03-08T11:58:56.332Z,94081.89
2019-03-08T12:01:29.314Z,94080.52
2019-03-08T12:04:11.927Z,94084.73
2019-03-08T12:06:58.444Z,94079.35
2019-03-08T12:09:31.741Z,94081.01
2019-03-08T12:12:20.306Z,94081.81
2019-03-08T12:14:59.349Z,94075.80
2019-03-08T12:17:32.318Z,94078.58
2019-03-08T12:20:14.087Z,94078.11
2019-03-08T12:22:44.399Z,94078.18
2019-03-08T12:25:29.608Z,94076.09
2019-03-08T12:27:59.804Z,94065.37
2019-03-08T12:30:33.110Z,94068.66
2019-03-08T12:33:03.328Z,94058.25
2019-03-08T12:35:36.321Z,94057.23
2019-03-08T12:38:06.643Z,94052.70
2019-03-08T12:40:39.728Z,94059.39
2019-03-08T12:43:10.270Z,94057.10
2019-03-08T12:45:47.957Z,94047.98
2019-03-08T12:48:23.812Z,94051.64
2019-03-08T12:51:02.978Z,94048.54
2019-03-08T12:53:33.236Z,94050.56
2019-03-08T12:56:06.579Z,94053.07
2019-03-08T12:58:39.716Z,94057.02
2019-03-08T13:01:09.988Z,94054.32
2019-03-08T13:03:43.381Z,94051.60
2019-03-08T13:06:19.374Z,94047.64
2019-03-08T13:09:07.573Z,94058.92
2019-03-08T13:11:36.441Z,94057.72
2019-03-08T13:14:05.400Z,94054.27
2019-03-08T13:16:34.070Z,94054.73
2019-03-08T13:19:02.691Z,94058.78
2019-03-08T13:21:31.443Z,94060.03
2019-03-08T13:24:00.061Z,94062.02
2019-03-08T13:26:28.873Z,94064.53
2019-03-08T13:28:57.571Z,94070.98
2019-03-08T13:31:26.259Z,94068.52
2019-03-08T13:33:55.049Z,94073.11
2019-03-08T13:36:23.769Z,94073.94
2019-03-08T13:38:54.645Z,94074.31
2019-03-08T13:41:24.913Z,94074.88
2019-03-08T13:43:53.694Z,94076.71
2019-03-08T13:46:22.644Z,94079.01
2019-03-08T13:48:51.683Z,94079.25
2019-03-08T13:51:31.595Z,94081.69
2019-03-08T13:54:02.669Z,94081.95
2019-03-08T13:56:31.801Z,94088.03
2019-03-08T13:59:02.091Z,94085.42
2019-03-08T14:01:33.847Z,94085.63
2019-03-08T14:04:02.630Z,94087.42
2019-03-08T14:06:31.385Z,94085.34
2019-03-08T14:09:00.069Z,94082.08
2019-03-08T14:11:28.803Z,94084.61
2019-03-08T14:13:57.518Z,94084.11
2019-03-08T14:16:28.957Z,94080.65
2019-03-08T14:18:57.709Z,94077.77
2019-03-08T14:21:26.517Z,94075.44
2019-03-08T14:23:55.446Z,94085.68
2019-03-08T14:26:24.225Z,94084.27
2019-03-08T14:28:52.885Z,94088.80
2019-03-08T14:31:23.386Z,94083.67
2019-03-08T14:33:53.314Z,94089.64
2019-03-08T14:36:22.071Z,94092.56
2019-03-08T14:38:52.506Z,94107.04
2019-03-08T14:41:23.536Z,94095.42
2019-03-08T14:43:57.138Z,94094.44
2019-03-08T14:46:36.901Z,94099.34
2019-03-08T14:49:07.780Z,94092.86
2019-03-08T14:51:38.112Z,94097.47
2019-03-08T14:54:09.922Z,94092.70
2019-03-08T14:56:39.659Z,94090.25
2019-03-08T14:59:11.318Z,94090.12
2019-03-08T15:01:40.232Z,94094.81
2019-03-08T15:04:11.845Z,94099.18
2019-03-08T15:06:40.746Z,94097.48
2019-03-08T15:09:11.613Z,94098.02
2019-03-08T15:11:40.601Z,94094.88
2019-03-08T15:14:09.477Z,94091.31
2019-03-08T15:16:39.214Z,94091.98
2019-03-08T15:19:10.643Z,94096.63
2019-03-08T15:21:48.180Z,94103.02
2019-03-08T15:24:10.950Z,94108.06
2019-03-08T15:26:41.360Z,94105.00
2019-03-08T15:29:13.538Z,94112.34
2019-03-08T15:31:42.069Z,94114.81
2019-03-08T15:34:14.499Z,94120.02
2019-03-08T15:36:41.395Z,94117.85
2019-03-08T15:39:10.124Z,94114.93
2019-03-08T15:41:38.850Z,94112.23
2019-03-08T15:44:09.416Z,94118.38
2019-03-08T15:46:38.242Z,94112.08
2019-03-08T15:49:06.937Z,94126.82
2019-03-08T15:51:36.266Z,94121.05
2019-03-08T15:54:04.974Z,94127.73
2019-03-08T15:56:33.803Z,94135.13
2019-03-08T15:59:03.415Z,94150.11
2019-03-08T16:01:32.306Z,94148.06
2019-03-08T16:04:02.067Z,94162.09
2019-03-08T16:06:30.739Z,94173.48
2019-03-08T16:08:59.495Z,94179.38
2019-03-08T16:11:28.158Z,94190.52
2019-03-08T16:13:56.859Z,94195.66
2019-03-08T16:16:25.553Z,94196.08
2019-03-08T16:18:54.285Z,94194.27
2019-03-08T16:21:24.804Z,94207.50
2019-03-08T16:23:54.750Z,94219.69
2019-03-08T16:26:25.395Z,94229.92
2019-03-08T16:28:56.074Z,94233.97
2019-03-08T16:31:30.370Z,94240.13
2019-03-08T16:34:01.135Z,94240.34
2019-03-08T16:36:31.397Z,94248.06
2019-03-08T16:39:20.227Z,94244.13
2019-03-08T16:41:57.022Z,94255.24
2019-03-08T16:44:30.409Z,94263.02
2019-03-08T16:47:00.619Z,94270.68
2019-03-08T16:49:51.549Z,94271.55
2019-03-08T16:52:31.211Z,94272.66
2019-03-08T16:55:03.123Z,94275.73
2019-03-08T16:57:40.748Z,94282.70
2019-03-08T17:00:18.262Z,94285.02
2019-03-08T17:02:52.865Z,94293.14
2019-03-08T17:05:29.328Z,94294.50
2019-03-08T17:08:18.715Z,94297.32
2019-03-08T17:11:05.784Z,94304.12
2019-03-08T17:13:43.611Z,94309.47
2019-03-08T17:16:26.633Z,94305.42
2019-03-08T17:18:56.927Z,94313.59
2019-03-08T17:21:27.451Z,94313.80
2019-03-08T17:23:58.404Z,94323.41
2019-03-08T17:26:28.960Z,94336.52
2019-03-08T17:29:17.591Z,94331.36
2019-03-08T17:31:48.539Z,94352.22
2019-03-08T17:34:21.881Z,94355.76
2019-03-08T17:37:01.700Z,94365.11
2019-03-08T17:39:38.640Z,94366.50
2019-03-08T17:42:20.996Z,94362.46
2019-03-08T17:44:51.490Z,94359.63
2019-03-08T17:47:38.922Z,94366.07
2019-03-08T17:50:23.314Z,94373.98
2019-03-08T17:52:59.689Z,94367.80
2019-03-08T17:55:46.500Z,94375.03
2019-03-08T17:58:30.225Z,94381.48
2019-03-08T18:04:20.787Z,94402.91
2019-03-08T18:06:51.351Z,94405.11
2019-03-08T18:09:22.389Z,94407.88
2019-03-08T18:11:52.772Z,94409.73
2019-03-08T18:14:32.171Z,94419.64
2019-03-08T18:17:04.036Z,94422.09
2019-03-08T18:19:44.412Z,94433.68
2019-03-08T18:22:19.158Z,94432.27
2019-03-08T18:24:52.986Z,94430.31
2019-03-08T18:27:40.093Z,94442.34
2019-03-08T18:30:19.475Z,94437.91
2019-03-08T18:32:49.869Z,94446.38
2019-03-08T18:35:26.975Z,94450.40
2019-03-08T18:38:13.210Z,94447.91
2019-03-08T18:40:52.333Z,94451.91
2019-03-08T18:43:22.818Z,94460.06
2019-03-08T18:46:09.512Z,94451.65
2019-03-08T18:48:44.138Z,94456.06
2019-03-08T18:51:20.822Z,94457.48
2019-03-08T18:54:07.414Z,94458.75
2019-03-08T18:56:38.096Z,94466.50
2019-03-08T18:59:23.982Z,94459.58
2019-03-08T19:02:10.868Z,94466.81
2019-03-08T19:04:53.415Z,94459.47
2019-03-08T19:07:40.085Z,94458.25
2019-03-08T19:10:11.812Z,94464.25
2019-03-08T19:12:42.445Z,94469.94
2019-03-08T19:15:14.802Z,94476.30
2019-03-08T19:17:45.108Z,94477.17
2019-03-08T19:20:18.576Z,94477.27
2019-03-08T19:22:49.009Z,94480.09
2019-03-08T19:25:19.346Z,94486.14
2019-03-08T19:27:56.445Z,94490.33
2019-03-08T19:30:41.835Z,94496.45
2019-03-08T19:33:16.456Z,94496.83
2019-03-08T19:35:46.905Z,94499.16
2019-03-08T19:38:22.654Z,94495.75
2019-03-08T19:40:55.906Z,94496.91
2019-03-08T19:43:38.419Z,94496.31
2019-03-08T19:46:25.390Z,94490.87
2019-03-08T19:48:56.168Z,94496.31
2019-03-08T19:51:44.771Z,94500.52
2019-03-08T19:54:20.781Z,94503.44
2019-03-08T19:57:00.183Z,94501.62
2019-03-08T19:59:33.315Z,94493.45
2019-03-08T20:02:15.756Z,94500.86
2019-03-08T20:05:02.587Z,94507.27
2019-03-08T20:07:33.127Z,94504.80
2019-03-08T20:10:06.151Z,94502.00
2019-03-08T20:12:36.513Z,94496.39
2019-03-08T20:15:12.799Z,94500.45
2019-03-08T20:17:43.071Z,94508.69
2019-03-08T20:20:21.403Z,94519.55
2019-03-08T20:22:54.943Z,94519.46
2019-03-08T20:25:25.422Z,94516.87
2019-03-08T20:28:13.875Z,94515.40
2019-03-08T20:31:00.244Z,94515.92
2019-03-08T20:33:33.451Z,94516.34
2019-03-08T20:36:09.751Z,94517.88
2019-03-08T20:38:47.635Z,94521.59
2019-03-08T20:41:29.557Z,94520.63
2019-03-08T20:44:03.023Z,94538.00
2019-03-08T20:46:39.327Z,94533.34
2019-03-08T20:49:08.384Z,94536.47
2019-03-08T20:51:37.213Z,94541.00
2019-03-08T20:54:06.471Z,94543.35
2019-03-08T20:56:35.472Z,94536.89
2019-03-08T20:59:04.422Z,94537.27
2019-03-08T21:01:33.110Z,94538.66
2019-03-08T21:04:02.155Z,94543.35
2019-03-08T21:06:31.276Z,94547.85
2019-03-08T21:09:00.241Z,94546.58
2019-03-08T21:11:29.083Z,94551.72
2019-03-08T21:13:57.870Z,94557.49
2019-03-08T21:16:27.031Z,94557.17
2019-03-08T21:18:56.212Z,94553.68
2019-03-08T21:21:25.381Z,94560.09
2019-03-08T21:23:54.289Z,94554.64
2019-03-08T21:26:25.506Z,94560.45
2019-03-08T21:28:54.800Z,94560.61
2019-03-08T21:31:24.088Z,94559.97
2019-03-08T21:33:53.149Z,94563.18
2019-03-08T21:36:22.145Z,94567.48
2019-03-08T21:38:51.448Z,94568.13
2019-03-08T21:41:20.434Z,94565.58
2019-03-08T21:43:49.621Z,94568.47
2019-03-08T21:46:19.870Z,94578.25
2019-03-08T21:48:48.696Z,94580.84
2019-03-08T21:51:17.859Z,94583.25
2019-03-08T21:53:46.953Z,94579.08
2019-03-08T21:56:18.232Z,94580.67
2019-03-08T21:58:50.677Z,94584.05
2019-03-08T22:01:19.524Z,94580.69
2019-03-08T22:03:50.783Z,94574.59
2019-03-08T22:06:21.243Z,94575.53
2019-03-08T22:08:51.715Z,94572.66
2019-03-08T22:11:22.136Z,94569.45
2019-03-08T22:13:50.970Z,94570.91
2019-03-08T22:16:20.268Z,94565.91
2019-03-08T22:18:49.230Z,94565.59
2019-03-08T22:21:19.458Z,94570.38
2019-03-08T22:23:48.692Z,94563.97
2019-03-08T22:26:19.102Z,94559.83
2019-03-08T22:28:48.531Z,94555.98
2019-03-08T22:31:17.582Z,94548.77
2019-03-08T22:33:46.321Z,94549.24
2019-03-08T22:36:15.365Z,94552.45
2019-03-08T22:38:44.186Z,94566.87
2019-03-08T22:41:13.085Z,94563.81
2019-03-08T22:43:41.779Z,94574.87
2019-03-08T22:46:10.453Z,94569.92
2019-03-08T22:48:39.263Z,94567.48
2019-03-08T22:51:07.923Z,94562.38
2019-03-08T22:53:37.418Z,94558.84
2019-03-08T22:56:06.266Z,94549.40
2019-03-08T22:58:35.084Z,94542.03
2019-03-08T23:01:06.407Z,94539.95
2019-03-08T23:03:35.105Z,94538.66
2019-03-08T23:06:03.811Z,94541.36
2019-03-08T23:08:32.705Z,94539.28
2019-03-08T23:11:01.413Z,94538.95
2019-03-08T23:13:30.115Z,94534.94
2019-03-08T23:15:58.761Z,94531.56
2019-03-08T23:18:27.441Z,94528.36
2019-03-08T23:20:56.336Z,94533.43
2019-03-08T23:23:25.155Z,94538.09
2019-03-08T23:25:53.835Z,94543.05
2019-03-08T23:28:27.015Z,94545.91
2019-03-08T23:31:00.010Z,94540.77
2019-03-08T23:33:28.709Z,94541.13
2019-03-08T23:35:57.323Z,94538.85
2019-03-08T23:38:26.021Z,94539.50
2019-03-08T23:40:54.675Z,94545.84
2019-03-08T23:43:23.348Z,94551.09
2019-03-08T23:45:52.153Z,94550.34
2019-03-08T23:48:20.889Z,94550.68
2019-03-08T23:50:49.523Z,94548.31
2019-03-08T23:53:18.212Z,94552.28
2019-03-08T23:55:46.928Z,94551.98
2019-03-08T23:58:15.584Z,94549.59
